Government of Jersey

Home Log in

Channel Islands Terminal Aerodrome Forecasts (TAFs)

Jersey Airport - EGJJ

EGJJ 240804Z 2409/2418 09011KT 7000 FEW005 BKN012 TEMPO 2409/2411 3000 BR BKN003 BECMG 2411/2413 SCT012=

Guernsey Airport - EGJB

EGJB 240804Z 2409/2418 09008KT 9000 FEW007 BKN012 PROB30 TEMPO 2409/2412 5000 BR BKN005 TEMPO 2412/2418 SCT015=

Alderney Airport - EGJA

EGJA 240804Z 2409/2418 08008KT 9999 FEW007 BKN012 PROB40 TEMPO 2409/2412 3000 BR BKN003 TEMPO 2413/2418 SCT015=